sensor_id;sensor_type;location;lat;lon;timestamp;temperature;humidity
60469;DHT22;46316;47.582;10.238;2022-08-07T00:01:35;15.00;88.80
60469;DHT22;46316;47.582;10.238;2022-08-07T00:04:00;14.90;88.80
60469;DHT22;46316;47.582;10.238;2022-08-07T00:06:26;14.90;89.00
60469;DHT22;46316;47.582;10.238;2022-08-07T00:08:52;14.90;88.90
60469;DHT22;46316;47.582;10.238;2022-08-07T00:11:18;14.80;88.90
60469;DHT22;46316;47.582;10.238;2022-08-07T00:13:43;14.80;88.50
60469;DHT22;46316;47.582;10.238;2022-08-07T00:16:11;14.80;88.70
60469;DHT22;46316;47.582;10.238;2022-08-07T00:18:36;14.80;88.90
60469;DHT22;46316;47.582;10.238;2022-08-07T00:21:04;14.80;88.90
60469;DHT22;46316;47.582;10.238;2022-08-07T00:23:32;14.80;89.10
60469;DHT22;46316;47.582;10.238;2022-08-07T00:26:02;14.80;89.30
60469;DHT22;46316;47.582;10.238;2022-08-07T00:28:29;14.80;89.10
60469;DHT22;46316;47.582;10.238;2022-08-07T00:30:55;14.70;89.00
60469;DHT22;46316;47.582;10.238;2022-08-07T00:33:21;14.70;89.10
60469;DHT22;46316;47.582;10.238;2022-08-07T00:35:51;14.70;89.10
60469;DHT22;46316;47.582;10.238;2022-08-07T00:38:17;14.70;89.00
60469;DHT22;46316;47.582;10.238;2022-08-07T00:40:43;14.60;89.00
60469;DHT22;46316;47.582;10.238;2022-08-07T00:43:10;14.70;89.00
60469;DHT22;46316;47.582;10.238;2022-08-07T00:45:39;14.70;89.10
60469;DHT22;46316;47.582;10.238;2022-08-07T00:48:06;14.60;89.20
60469;DHT22;46316;47.582;10.238;2022-08-07T00:50:32;14.60;89.20
60469;DHT22;46316;47.582;10.238;2022-08-07T00:52:57;14.60;89.20
60469;DHT22;46316;47.582;10.238;2022-08-07T00:55:24;14.50;89.20
60469;DHT22;46316;47.582;10.238;2022-08-07T00:57:49;14.50;89.20
60469;DHT22;46316;47.582;10.238;2022-08-07T01:00:17;14.50;89.10
60469;DHT22;46316;47.582;10.238;2022-08-07T01:02:43;14.50;89.00
60469;DHT22;46316;47.582;10.238;2022-08-07T01:05:09;14.50;89.00
60469;DHT22;46316;47.582;10.238;2022-08-07T01:07:35;14.40;89.20
60469;DHT22;46316;47.582;10.238;2022-08-07T01:10:01;14.40;89.10
60469;DHT22;46316;47.582;10.238;2022-08-07T01:12:26;14.40;89.40
60469;DHT22;46316;47.582;10.238;2022-08-07T01:14:52;14.40;89.40
60469;DHT22;46316;47.582;10.238;2022-08-07T01:17:18;14.40;89.50
60469;DHT22;46316;47.582;10.238;2022-08-07T01:19:44;14.40;89.50
60469;DHT22;46316;47.582;10.238;2022-08-07T01:22:10;14.40;89.50
60469;DHT22;46316;47.582;10.238;2022-08-07T01:24:35;14.40;89.30
60469;DHT22;46316;47.582;10.238;2022-08-07T01:27:02;14.40;89.20
60469;DHT22;46316;47.582;10.238;2022-08-07T01:29:29;14.40;89.30
60469;DHT22;46316;47.582;10.238;2022-08-07T01:31:55;14.40;89.30
60469;DHT22;46316;47.582;10.238;2022-08-07T01:34:21;14.40;89.30
60469;DHT22;46316;47.582;10.238;2022-08-07T01:36:48;14.40;89.50
60469;DHT22;46316;47.582;10.238;2022-08-07T01:39:14;14.40;89.50
60469;DHT22;46316;47.582;10.238;2022-08-07T01:41:40;14.40;89.40
60469;DHT22;46316;47.582;10.238;2022-08-07T01:44:08;14.40;89.10
60469;DHT22;46316;47.582;10.238;2022-08-07T01:46:34;14.40;89.20
60469;DHT22;46316;47.582;10.238;2022-08-07T01:49:01;14.40;89.20
60469;DHT22;46316;47.582;10.238;2022-08-07T01:51:28;14.40;89.20
60469;DHT22;46316;47.582;10.238;2022-08-07T01:53:59;14.40;89.00
60469;DHT22;46316;47.582;10.238;2022-08-07T01:56:28;14.50;89.20
60469;DHT22;46316;47.582;10.238;2022-08-07T01:59:07;14.60;89.30
60469;DHT22;46316;47.582;10.238;2022-08-07T02:01:41;14.60;89.30
60469;DHT22;46316;47.582;10.238;2022-08-07T02:04:16;14.70;89.50
60469;DHT22;46316;47.582;10.238;2022-08-07T02:06:43;14.80;89.60
60469;DHT22;46316;47.582;10.238;2022-08-07T02:09:13;14.80;89.50
60469;DHT22;46316;47.582;10.238;2022-08-07T02:11:44;14.90;89.50
60469;DHT22;46316;47.582;10.238;2022-08-07T02:14:10;14.90;89.10
60469;DHT22;46316;47.582;10.238;2022-08-07T02:16:37;15.00;89.10
60469;DHT22;46316;47.582;10.238;2022-08-07T02:19:07;15.10;89.00
60469;DHT22;46316;47.582;10.238;2022-08-07T02:21:37;15.10;88.80
60469;DHT22;46316;47.582;10.238;2022-08-07T02:24:04;15.10;88.60
60469;DHT22;46316;47.582;10.238;2022-08-07T02:26:32;15.20;88.60
60469;DHT22;46316;47.582;10.238;2022-08-07T02:28:59;15.30;88.40
60469;DHT22;46316;47.582;10.238;2022-08-07T02:31:27;15.30;88.30
60469;DHT22;46316;47.582;10.238;2022-08-07T02:33:54;15.30;88.30
60469;DHT22;46316;47.582;10.238;2022-08-07T02:36:22;15.30;88.30
60469;DHT22;46316;47.582;10.238;2022-08-07T02:38:48;15.40;88.30
60469;DHT22;46316;47.582;10.238;2022-08-07T02:41:16;15.40;88.20
60469;DHT22;46316;47.582;10.238;2022-08-07T02:43:42;15.40;88.10
60469;DHT22;46316;47.582;10.238;2022-08-07T02:46:08;15.40;87.90
60469;DHT22;46316;47.582;10.238;2022-08-07T02:48:36;15.40;87.90
60469;DHT22;46316;47.582;10.238;2022-08-07T02:51:09;15.40;87.90
60469;DHT22;46316;47.582;10.238;2022-08-07T02:53:37;15.40;87.90
60469;DHT22;46316;47.582;10.238;2022-08-07T02:56:05;15.50;87.80
60469;DHT22;46316;47.582;10.238;2022-08-07T02:58:33;15.50;87.90
60469;DHT22;46316;47.582;10.238;2022-08-07T03:00:59;15.50;87.60
60469;DHT22;46316;47.582;10.238;2022-08-07T03:03:30;15.60;87.70
60469;DHT22;46316;47.582;10.238;2022-08-07T03:05:56;15.50;87.90
60469;DHT22;46316;47.582;10.238;2022-08-07T03:08:23;15.60;88.00
60469;DHT22;46316;47.582;10.238;2022-08-07T03:10:49;15.50;88.10
60469;DHT22;46316;47.582;10.238;2022-08-07T03:13:15;15.60;88.10
60469;DHT22;46316;47.582;10.238;2022-08-07T03:15:42;15.60;88.20
60469;DHT22;46316;47.582;10.238;2022-08-07T03:18:08;15.60;88.10
60469;DHT22;46316;47.582;10.238;2022-08-07T03:20:34;15.60;88.00
60469;DHT22;46316;47.582;10.238;2022-08-07T03:23:00;15.70;88.10
60469;DHT22;46316;47.582;10.238;2022-08-07T03:25:28;15.80;88.00
60469;DHT22;46316;47.582;10.238;2022-08-07T03:27:54;15.70;87.90
60469;DHT22;46316;47.582;10.238;2022-08-07T03:30:21;15.70;87.90
60469;DHT22;46316;47.582;10.238;2022-08-07T03:32:48;15.80;87.90
60469;DHT22;46316;47.582;10.238;2022-08-07T03:35:18;15.80;87.80
60469;DHT22;46316;47.582;10.238;2022-08-07T03:37:49;15.80;87.70
60469;DHT22;46316;47.582;10.238;2022-08-07T03:40:18;15.80;87.60
60469;DHT22;46316;47.582;10.238;2022-08-07T03:42:44;15.80;87.60
60469;DHT22;46316;47.582;10.238;2022-08-07T03:45:10;15.80;87.70
60469;DHT22;46316;47.582;10.238;2022-08-07T03:47:36;15.80;87.80
60469;DHT22;46316;47.582;10.238;2022-08-07T03:50:03;15.80;87.80
60469;DHT22;46316;47.582;10.238;2022-08-07T03:52:29;15.80;87.80
60469;DHT22;46316;47.582;10.238;2022-08-07T03:54:57;15.80;87.80
60469;DHT22;46316;47.582;10.238;2022-08-07T03:57:27;15.90;87.70
60469;DHT22;46316;47.582;10.238;2022-08-07T03:59:54;15.90;87.70
60469;DHT22;46316;47.582;10.238;2022-08-07T04:02:21;15.90;87.50
60469;DHT22;46316;47.582;10.238;2022-08-07T04:04:47;15.90;87.70
60469;DHT22;46316;47.582;10.238;2022-08-07T04:07:15;15.90;87.60
60469;DHT22;46316;47.582;10.238;2022-08-07T04:09:42;15.90;87.80
60469;DHT22;46316;47.582;10.238;2022-08-07T04:12:08;15.90;87.70
60469;DHT22;46316;47.582;10.238;2022-08-07T04:14:34;15.90;87.60
60469;DHT22;46316;47.582;10.238;2022-08-07T04:17:00;15.90;87.70
60469;DHT22;46316;47.582;10.238;2022-08-07T04:19:26;15.90;87.70
60469;DHT22;46316;47.582;10.238;2022-08-07T04:21:52;15.90;87.70
60469;DHT22;46316;47.582;10.238;2022-08-07T04:24:18;16.00;87.70
60469;DHT22;46316;47.582;10.238;2022-08-07T04:26:44;15.90;87.80
60469;DHT22;46316;47.582;10.238;2022-08-07T04:29:10;16.00;87.60
60469;DHT22;46316;47.582;10.238;2022-08-07T04:31:39;16.00;87.80
60469;DHT22;46316;47.582;10.238;2022-08-07T04:34:06;16.00;87.90
60469;DHT22;46316;47.582;10.238;2022-08-07T04:36:32;16.00;87.70
60469;DHT22;46316;47.582;10.238;2022-08-07T04:38:59;16.10;87.80
60469;DHT22;46316;47.582;10.238;2022-08-07T04:41:24;16.10;87.80
60469;DHT22;46316;47.582;10.238;2022-08-07T04:43:50;16.10;87.80
60469;DHT22;46316;47.582;10.238;2022-08-07T04:54:10;16.10;88.20
60469;DHT22;46316;47.582;10.238;2022-08-07T04:56:49;16.10;88.10
60469;DHT22;46316;47.582;10.238;2022-08-07T04:59:29;16.20;87.90
60469;DHT22;46316;47.582;10.238;2022-08-07T05:07:14;16.30;87.70
60469;DHT22;46316;47.582;10.238;2022-08-07T05:12:38;16.40;87.00
60469;DHT22;46316;47.582;10.238;2022-08-07T05:15:09;16.40;87.20
60469;DHT22;46316;47.582;10.238;2022-08-07T05:17:50;16.40;87.20
60469;DHT22;46316;47.582;10.238;2022-08-07T05:20:31;16.40;87.10
60469;DHT22;46316;47.582;10.238;2022-08-07T05:23:00;16.40;87.10
60469;DHT22;46316;47.582;10.238;2022-08-07T05:25:28;16.40;87.00
60469;DHT22;46316;47.582;10.238;2022-08-07T05:27:56;16.40;87.00
60469;DHT22;46316;47.582;10.238;2022-08-07T05:30:23;16.40;87.10
60469;DHT22;46316;47.582;10.238;2022-08-07T05:32:50;16.30;87.30
60469;DHT22;46316;47.582;10.238;2022-08-07T05:35:16;16.30;87.50
60469;DHT22;46316;47.582;10.238;2022-08-07T05:37:44;16.30;87.50
60469;DHT22;46316;47.582;10.238;2022-08-07T05:40:11;16.40;87.00
60469;DHT22;46316;47.582;10.238;2022-08-07T05:42:37;16.30;87.10
60469;DHT22;46316;47.582;10.238;2022-08-07T05:45:04;16.30;87.00
60469;DHT22;46316;47.582;10.238;2022-08-07T05:47:31;16.30;87.10
60469;DHT22;46316;47.582;10.238;2022-08-07T05:49:57;16.40;87.20
60469;DHT22;46316;47.582;10.238;2022-08-07T05:52:22;16.40;87.30
60469;DHT22;46316;47.582;10.238;2022-08-07T05:54:48;16.40;86.80
60469;DHT22;46316;47.582;10.238;2022-08-07T05:57:15;16.40;87.00
60469;DHT22;46316;47.582;10.238;2022-08-07T05:59:43;16.40;86.80
60469;DHT22;46316;47.582;10.238;2022-08-07T06:02:13;16.40;86.80
60469;DHT22;46316;47.582;10.238;2022-08-07T06:04:46;16.40;86.80
60469;DHT22;46316;47.582;10.238;2022-08-07T06:07:13;16.40;86.90
60469;DHT22;46316;47.582;10.238;2022-08-07T06:09:39;16.50;86.60
60469;DHT22;46316;47.582;10.238;2022-08-07T06:12:05;16.60;86.20
60469;DHT22;46316;47.582;10.238;2022-08-07T06:14:31;16.60;85.90
60469;DHT22;46316;47.582;10.238;2022-08-07T06:16:57;16.70;85.50
60469;DHT22;46316;47.582;10.238;2022-08-07T06:19:23;16.70;85.00
60469;DHT22;46316;47.582;10.238;2022-08-07T06:21:50;16.80;84.80
60469;DHT22;46316;47.582;10.238;2022-08-07T06:24:17;16.90;84.70
60469;DHT22;46316;47.582;10.238;2022-08-07T06:26:43;16.90;84.50
60469;DHT22;46316;47.582;10.238;2022-08-07T06:29:08;16.90;84.40
60469;DHT22;46316;47.582;10.238;2022-08-07T06:31:34;16.90;84.30
60469;DHT22;46316;47.582;10.238;2022-08-07T06:34:00;16.90;84.10
60469;DHT22;46316;47.582;10.238;2022-08-07T06:36:26;16.80;83.90
60469;DHT22;46316;47.582;10.238;2022-08-07T06:38:52;16.70;83.80
60469;DHT22;46316;47.582;10.238;2022-08-07T06:41:32;16.70;84.00
60469;DHT22;46316;47.582;10.238;2022-08-07T06:44:00;16.70;84.30
60469;DHT22;46316;47.582;10.238;2022-08-07T06:46:26;16.80;83.80
60469;DHT22;46316;47.582;10.238;2022-08-07T06:48:52;16.80;83.50
60469;DHT22;46316;47.582;10.238;2022-08-07T06:51:22;16.70;83.80
60469;DHT22;46316;47.582;10.238;2022-08-07T06:53:51;16.70;84.00
60469;DHT22;46316;47.582;10.238;2022-08-07T06:56:20;16.80;83.50
60469;DHT22;46316;47.582;10.238;2022-08-07T06:59:05;16.80;83.30
60469;DHT22;46316;47.582;10.238;2022-08-07T07:01:33;16.80;83.60
60469;DHT22;46316;47.582;10.238;2022-08-07T07:03:59;16.90;83.40
60469;DHT22;46316;47.582;10.238;2022-08-07T07:06:25;16.90;82.90
60469;DHT22;46316;47.582;10.238;2022-08-07T07:08:50;17.00;83.10
60469;DHT22;46316;47.582;10.238;2022-08-07T07:11:16;17.00;82.80
60469;DHT22;46316;47.582;10.238;2022-08-07T07:13:46;17.10;82.50
60469;DHT22;46316;47.582;10.238;2022-08-07T07:16:18;17.20;82.20
60469;DHT22;46316;47.582;10.238;2022-08-07T07:18:50;17.30;81.60
60469;DHT22;46316;47.582;10.238;2022-08-07T07:21:23;17.40;81.70
60469;DHT22;46316;47.582;10.238;2022-08-07T07:23:50;17.40;81.20
60469;DHT22;46316;47.582;10.238;2022-08-07T07:26:18;17.40;81.60
60469;DHT22;46316;47.582;10.238;2022-08-07T07:28:59;17.40;80.80
60469;DHT22;46316;47.582;10.238;2022-08-07T07:31:34;17.30;81.10
60469;DHT22;46316;47.582;10.238;2022-08-07T07:34:06;17.40;81.40
60469;DHT22;46316;47.582;10.238;2022-08-07T07:36:33;17.50;81.20
60469;DHT22;46316;47.582;10.238;2022-08-07T07:39:00;17.40;80.40
60469;DHT22;46316;47.582;10.238;2022-08-07T07:41:27;17.40;80.90
60469;DHT22;46316;47.582;10.238;2022-08-07T07:43:54;17.40;80.80
60469;DHT22;46316;47.582;10.238;2022-08-07T07:46:21;17.40;80.50
60469;DHT22;46316;47.582;10.238;2022-08-07T07:48:49;17.40;80.50
60469;DHT22;46316;47.582;10.238;2022-08-07T07:51:16;17.40;80.80
60469;DHT22;46316;47.582;10.238;2022-08-07T07:53:44;17.30;81.00
60469;DHT22;46316;47.582;10.238;2022-08-07T07:56:12;17.30;80.20
60469;DHT22;46316;47.582;10.238;2022-08-07T07:58:38;17.30;80.40
60469;DHT22;46316;47.582;10.238;2022-08-07T08:01:06;17.30;80.60
60469;DHT22;46316;47.582;10.238;2022-08-07T08:03:34;17.30;80.90
60469;DHT22;46316;47.582;10.238;2022-08-07T08:06:01;17.20;80.90
60469;DHT22;46316;47.582;10.238;2022-08-07T08:08:29;17.30;80.30
60469;DHT22;46316;47.582;10.238;2022-08-07T08:10:55;17.30;80.60
60469;DHT22;46316;47.582;10.238;2022-08-07T08:13:24;17.30;80.80
60469;DHT22;46316;47.582;10.238;2022-08-07T08:15:51;17.30;80.80
60469;DHT22;46316;47.582;10.238;2022-08-07T08:18:18;17.20;81.00
60469;DHT22;46316;47.582;10.238;2022-08-07T08:20:47;17.40;81.00
60469;DHT22;46316;47.582;10.238;2022-08-07T08:23:14;17.40;80.60
60469;DHT22;46316;47.582;10.238;2022-08-07T08:26:00;17.30;80.80
60469;DHT22;46316;47.582;10.238;2022-08-07T08:28:47;17.30;81.00
60469;DHT22;46316;47.582;10.238;2022-08-07T08:31:25;17.30;81.00
60469;DHT22;46316;47.582;10.238;2022-08-07T08:33:52;17.30;81.20
60469;DHT22;46316;47.582;10.238;2022-08-07T08:36:22;17.40;81.00
60469;DHT22;46316;47.582;10.238;2022-08-07T08:38:49;17.30;80.80
60469;DHT22;46316;47.582;10.238;2022-08-07T08:44:06;17.50;80.60
60469;DHT22;46316;47.582;10.238;2022-08-07T08:46:47;17.50;80.30
60469;DHT22;46316;47.582;10.238;2022-08-07T08:49:25;17.50;80.50
60469;DHT22;46316;47.582;10.238;2022-08-07T08:52:21;17.50;80.50
60469;DHT22;46316;47.582;10.238;2022-08-07T08:57:51;17.40;80.60
60469;DHT22;46316;47.582;10.238;2022-08-07T09:00:22;17.30;80.90
60469;DHT22;46316;47.582;10.238;2022-08-07T09:02:57;17.10;81.60
60469;DHT22;46316;47.582;10.238;2022-08-07T09:05:55;17.10;81.30
60469;DHT22;46316;47.582;10.238;2022-08-07T09:08:48;17.10;81.80
60469;DHT22;46316;47.582;10.238;2022-08-07T09:11:40;17.10;81.90
60469;DHT22;46316;47.582;10.238;2022-08-07T09:24:58;17.10;82.10
60469;DHT22;46316;47.582;10.238;2022-08-07T09:27:36;17.20;81.60
60469;DHT22;46316;47.582;10.238;2022-08-07T09:30:08;17.30;81.20
60469;DHT22;46316;47.582;10.238;2022-08-07T09:33:02;17.30;81.20
60469;DHT22;46316;47.582;10.238;2022-08-07T09:35:36;17.30;81.60
60469;DHT22;46316;47.582;10.238;2022-08-07T09:43:27;17.30;81.90
60469;DHT22;46316;47.582;10.238;2022-08-07T09:54:16;17.40;81.00
60469;DHT22;46316;47.582;10.238;2022-08-07T09:59:57;17.50;80.90
60469;DHT22;46316;47.582;10.238;2022-08-07T10:11:36;18.00;79.10
60469;DHT22;46316;47.582;10.238;2022-08-07T10:17:55;18.30;76.90
60469;DHT22;46316;47.582;10.238;2022-08-07T10:20:15;18.50;77.10
60469;DHT22;46316;47.582;10.238;2022-08-07T10:33:44;18.80;76.30
60469;DHT22;46316;47.582;10.238;2022-08-07T10:36:23;18.90;76.20
60469;DHT22;46316;47.582;10.238;2022-08-07T10:38:56;18.90;75.50
60469;DHT22;46316;47.582;10.238;2022-08-07T10:41:38;18.70;75.50
60469;DHT22;46316;47.582;10.238;2022-08-07T10:44:33;18.60;75.70
60469;DHT22;46316;47.582;10.238;2022-08-07T10:47:46;18.70;75.70
60469;DHT22;46316;47.582;10.238;2022-08-07T10:50:43;18.80;75.60
60469;DHT22;46316;47.582;10.238;2022-08-07T10:53:26;18.90;75.10
60469;DHT22;46316;47.582;10.238;2022-08-07T11:03:41;19.10;75.10
60469;DHT22;46316;47.582;10.238;2022-08-07T11:06:22;19.10;76.10
60469;DHT22;46316;47.582;10.238;2022-08-07T11:09:03;19.10;75.60
60469;DHT22;46316;47.582;10.238;2022-08-07T11:11:38;19.20;75.00
60469;DHT22;46316;47.582;10.238;2022-08-07T11:14:27;19.20;74.60
60469;DHT22;46316;47.582;10.238;2022-08-07T11:17:18;19.20;74.60
60469;DHT22;46316;47.582;10.238;2022-08-07T11:20:03;19.00;74.20
60469;DHT22;46316;47.582;10.238;2022-08-07T11:22:34;19.00;75.70
60469;DHT22;46316;47.582;10.238;2022-08-07T11:27:49;19.00;75.50
60469;DHT22;46316;47.582;10.238;2022-08-07T11:30:18;18.90;75.40
60469;DHT22;46316;47.582;10.238;2022-08-07T11:32:53;18.90;75.10
60469;DHT22;46316;47.582;10.238;2022-08-07T11:35:24;18.90;75.60
60469;DHT22;46316;47.582;10.238;2022-08-07T11:38:25;19.10;74.60
60469;DHT22;46316;47.582;10.238;2022-08-07T11:40:57;19.20;74.70
60469;DHT22;46316;47.582;10.238;2022-08-07T11:43:29;19.50;73.70
60469;DHT22;46316;47.582;10.238;2022-08-07T11:46:09;19.70;73.10
60469;DHT22;46316;47.582;10.238;2022-08-07T11:51:58;20.10;72.90
60469;DHT22;46316;47.582;10.238;2022-08-07T12:00:00;20.30;70.70
60469;DHT22;46316;47.582;10.238;2022-08-07T12:03:10;20.40;71.20
60469;DHT22;46316;47.582;10.238;2022-08-07T12:06:09;20.50;69.50
60469;DHT22;46316;47.582;10.238;2022-08-07T12:08:43;20.60;69.90
60469;DHT22;46316;47.582;10.238;2022-08-07T12:11:30;20.60;69.80
60469;DHT22;46316;47.582;10.238;2022-08-07T12:14:10;20.60;69.40
60469;DHT22;46316;47.582;10.238;2022-08-07T12:16:46;20.70;69.40
60469;DHT22;46316;47.582;10.238;2022-08-07T12:19:20;20.50;69.90
60469;DHT22;46316;47.582;10.238;2022-08-07T12:24:55;20.50;70.20
60469;DHT22;46316;47.582;10.238;2022-08-07T12:27:45;20.40;71.00
60469;DHT22;46316;47.582;10.238;2022-08-07T12:30:14;20.60;69.70
60469;DHT22;46316;47.582;10.238;2022-08-07T12:32:51;20.50;69.60
60469;DHT22;46316;47.582;10.238;2022-08-07T12:35:20;20.70;71.00
60469;DHT22;46316;47.582;10.238;2022-08-07T12:37:48;20.70;69.80
60469;DHT22;46316;47.582;10.238;2022-08-07T12:40:21;20.80;70.30
60469;DHT22;46316;47.582;10.238;2022-08-07T12:42:51;20.90;69.80
60469;DHT22;46316;47.582;10.238;2022-08-07T12:45:26;20.90;69.50
60469;DHT22;46316;47.582;10.238;2022-08-07T12:47:59;20.80;69.50
60469;DHT22;46316;47.582;10.238;2022-08-07T12:50:34;20.80;69.60
60469;DHT22;46316;47.582;10.238;2022-08-07T12:56:01;20.50;70.00
60469;DHT22;46316;47.582;10.238;2022-08-07T12:58:32;20.40;70.20
60469;DHT22;46316;47.582;10.238;2022-08-07T13:03:51;20.40;71.10
60469;DHT22;46316;47.582;10.238;2022-08-07T13:06:45;20.30;71.50
60469;DHT22;46316;47.582;10.238;2022-08-07T13:12:31;19.90;72.10
60469;DHT22;46316;47.582;10.238;2022-08-07T13:15:42;19.90;72.10
60469;DHT22;46316;47.582;10.238;2022-08-07T13:18:30;19.80;73.10
60469;DHT22;46316;47.582;10.238;2022-08-07T13:23:50;19.70;72.40
60469;DHT22;46316;47.582;10.238;2022-08-07T13:26:42;19.80;72.90
60469;DHT22;46316;47.582;10.238;2022-08-07T13:29:11;19.80;72.60
60469;DHT22;46316;47.582;10.238;2022-08-07T13:31:44;19.90;72.20
60469;DHT22;46316;47.582;10.238;2022-08-07T13:42:35;19.80;72.20
60469;DHT22;46316;47.582;10.238;2022-08-07T13:45:04;19.90;72.10
60469;DHT22;46316;47.582;10.238;2022-08-07T13:47:36;19.90;72.20
60469;DHT22;46316;47.582;10.238;2022-08-07T13:50:04;19.90;72.10
60469;DHT22;46316;47.582;10.238;2022-08-07T13:52:35;19.80;73.00
60469;DHT22;46316;47.582;10.238;2022-08-07T13:55:07;19.70;72.80
60469;DHT22;46316;47.582;10.238;2022-08-07T13:57:34;19.70;72.60
60469;DHT22;46316;47.582;10.238;2022-08-07T14:00:03;19.80;72.70
60469;DHT22;46316;47.582;10.238;2022-08-07T14:02:33;19.70;72.70
60469;DHT22;46316;47.582;10.238;2022-08-07T14:05:05;19.70;72.40
60469;DHT22;46316;47.582;10.238;2022-08-07T14:07:42;19.80;72.20
60469;DHT22;46316;47.582;10.238;2022-08-07T14:10:08;19.90;72.60
60469;DHT22;46316;47.582;10.238;2022-08-07T14:12:44;19.90;72.40
60469;DHT22;46316;47.582;10.238;2022-08-07T14:18:00;20.00;71.60
60469;DHT22;46316;47.582;10.238;2022-08-07T14:20:29;20.10;71.50
60469;DHT22;46316;47.582;10.238;2022-08-07T14:23:26;20.00;71.40
60469;DHT22;46316;47.582;10.238;2022-08-07T14:26:13;20.00;72.00
60469;DHT22;46316;47.582;10.238;2022-08-07T14:28:43;20.00;71.90
60469;DHT22;46316;47.582;10.238;2022-08-07T14:31:10;20.00;71.90
60469;DHT22;46316;47.582;10.238;2022-08-07T14:33:38;20.00;71.60
60469;DHT22;46316;47.582;10.238;2022-08-07T14:36:04;19.90;72.10
60469;DHT22;46316;47.582;10.238;2022-08-07T14:38:31;19.90;72.50
60469;DHT22;46316;47.582;10.238;2022-08-07T14:41:00;19.90;72.70
60469;DHT22;46316;47.582;10.238;2022-08-07T14:43:28;19.90;72.60
60469;DHT22;46316;47.582;10.238;2022-08-07T14:45:57;19.90;72.30
60469;DHT22;46316;47.582;10.238;2022-08-07T14:48:33;19.90;71.90
60469;DHT22;46316;47.582;10.238;2022-08-07T14:51:04;19.90;72.10
60469;DHT22;46316;47.582;10.238;2022-08-07T14:53:39;19.90;72.30
60469;DHT22;46316;47.582;10.238;2022-08-07T14:56:07;20.00;72.30
60469;DHT22;46316;47.582;10.238;2022-08-07T14:58:36;20.00;71.70
60469;DHT22;46316;47.582;10.238;2022-08-07T15:01:04;20.10;71.00
60469;DHT22;46316;47.582;10.238;2022-08-07T15:03:31;20.10;71.70
60469;DHT22;46316;47.582;10.238;2022-08-07T15:05:59;20.10;71.60
60469;DHT22;46316;47.582;10.238;2022-08-07T15:08:29;20.00;72.00
60469;DHT22;46316;47.582;10.238;2022-08-07T15:10:59;20.00;71.80
60469;DHT22;46316;47.582;10.238;2022-08-07T15:13:26;20.00;72.00
60469;DHT22;46316;47.582;10.238;2022-08-07T15:15:58;19.90;72.80
60469;DHT22;46316;47.582;10.238;2022-08-07T15:18:32;19.90;73.30
60469;DHT22;46316;47.582;10.238;2022-08-07T15:21:03;19.90;72.50
60469;DHT22;46316;47.582;10.238;2022-08-07T15:23:31;20.00;72.50
60469;DHT22;46316;47.582;10.238;2022-08-07T15:25:59;20.00;73.00
60469;DHT22;46316;47.582;10.238;2022-08-07T15:28:28;20.00;72.90
60469;DHT22;46316;47.582;10.238;2022-08-07T15:31:00;20.10;72.10
60469;DHT22;46316;47.582;10.238;2022-08-07T15:33:26;20.10;72.00
60469;DHT22;46316;47.582;10.238;2022-08-07T15:35:55;20.10;72.00
60469;DHT22;46316;47.582;10.238;2022-08-07T15:38:27;20.30;71.90
60469;DHT22;46316;47.582;10.238;2022-08-07T15:40:54;20.30;72.10
60469;DHT22;46316;47.582;10.238;2022-08-07T15:43:23;20.40;71.20
60469;DHT22;46316;47.582;10.238;2022-08-07T15:45:51;20.40;71.70
60469;DHT22;46316;47.582;10.238;2022-08-07T15:48:25;20.40;71.10
60469;DHT22;46316;47.582;10.238;2022-08-07T15:50:54;20.40;71.80
60469;DHT22;46316;47.582;10.238;2022-08-07T15:54:08;20.40;71.80
60469;DHT22;46316;47.582;10.238;2022-08-07T15:56:15;20.40;72.20
60469;DHT22;46316;47.582;10.238;2022-08-07T15:58:51;20.30;72.50
60469;DHT22;46316;47.582;10.238;2022-08-07T16:01:21;20.30;72.60
60469;DHT22;46316;47.582;10.238;2022-08-07T16:03:51;20.20;72.40
60469;DHT22;46316;47.582;10.238;2022-08-07T16:06:31;20.10;72.30
60469;DHT22;46316;47.582;10.238;2022-08-07T16:09:46;20.10;71.80
60469;DHT22;46316;47.582;10.238;2022-08-07T16:12:08;20.00;72.20
60469;DHT22;46316;47.582;10.238;2022-08-07T16:28:26;20.00;73.60
60469;DHT22;46316;47.582;10.238;2022-08-07T16:33:40;19.90;73.70
60469;DHT22;46316;47.582;10.238;2022-08-07T16:36:25;19.90;73.20
60469;DHT22;46316;47.582;10.238;2022-08-07T16:39:18;20.00;73.70
60469;DHT22;46316;47.582;10.238;2022-08-07T16:42:12;20.00;74.20
60469;DHT22;46316;47.582;10.238;2022-08-07T16:44:43;19.90;73.70
60469;DHT22;46316;47.582;10.238;2022-08-07T16:56:17;19.90;74.10
60469;DHT22;46316;47.582;10.238;2022-08-07T17:01:54;19.90;74.40
60469;DHT22;46316;47.582;10.238;2022-08-07T17:07:22;19.90;74.60
60469;DHT22;46316;47.582;10.238;2022-08-07T17:09:53;19.80;74.50
60469;DHT22;46316;47.582;10.238;2022-08-07T17:12:52;19.80;74.90
60469;DHT22;46316;47.582;10.238;2022-08-07T17:15:22;19.70;74.50
60469;DHT22;46316;47.582;10.238;2022-08-07T17:18:08;19.60;74.20
60469;DHT22;46316;47.582;10.238;2022-08-07T17:20:37;19.50;74.70
60469;DHT22;46316;47.582;10.238;2022-08-07T17:28:32;19.30;75.90
60469;DHT22;46316;47.582;10.238;2022-08-07T17:31:04;19.20;75.60
60469;DHT22;46316;47.582;10.238;2022-08-07T17:33:36;19.10;75.70
60469;DHT22;46316;47.582;10.238;2022-08-07T17:36:10;19.10;76.10
60469;DHT22;46316;47.582;10.238;2022-08-07T17:41:42;19.00;76.50
60469;DHT22;46316;47.582;10.238;2022-08-07T17:44:13;19.00;76.60
60469;DHT22;46316;47.582;10.238;2022-08-07T17:46:58;18.90;76.70
60469;DHT22;46316;47.582;10.238;2022-08-07T17:49:29;18.90;76.70
60469;DHT22;46316;47.582;10.238;2022-08-07T17:52:01;18.90;76.40
60469;DHT22;46316;47.582;10.238;2022-08-07T17:59:42;18.90;77.20
60469;DHT22;46316;47.582;10.238;2022-08-07T18:02:37;18.90;77.30
60469;DHT22;46316;47.582;10.238;2022-08-07T18:08:12;18.80;76.90
60469;DHT22;46316;47.582;10.238;2022-08-07T18:10:48;18.80;77.20
60469;DHT22;46316;47.582;10.238;2022-08-07T18:13:36;18.80;77.20
60469;DHT22;46316;47.582;10.238;2022-08-07T18:17:21;18.80;77.70
60469;DHT22;46316;47.582;10.238;2022-08-07T18:19:08;18.80;77.80
60469;DHT22;46316;47.582;10.238;2022-08-07T18:21:37;18.80;78.10
60469;DHT22;46316;47.582;10.238;2022-08-07T18:24:20;18.80;78.30
60469;DHT22;46316;47.582;10.238;2022-08-07T18:27:18;18.70;78.50
60469;DHT22;46316;47.582;10.238;2022-08-07T18:35:37;18.60;77.80